Time;durP1;ratioP1;P1;durP2;ratioP2;P2;SDS_P1;SDS_P2;PMS_P1;PMS_P2;Temp;Humidity;BMP_temperature;BMP_pressure;BME280_temperature;BME280_humidity;BME280_pressure;Samples;Min_cycle;Max_cycle;Signal;HPM_P1;HPM_P2
2021/03/27 00:02:45;;;;;;;21.68;11.80;;;;;;;2.19;79.57;100456.02;1777635;81;21195;-79
2021/03/27 00:05:57;;;;;;;21.45;12.05;;;;;;;2.16;79.73;100450.84;1777781;81;21270;-79
2021/03/27 00:09:13;;;;;;;23.70;12.90;;;;;;;2.15;79.87;100450.98;1777737;81;21274;-79
2021/03/27 00:12:53;;;;;;;21.15;12.20;;;;;;;2.13;80.10;100448.41;1777576;81;21764;-79
2021/03/27 00:16:30;;;;;;;;;;;;;;;2.11;80.24;100445.44;1780369;81;21282;-79
2021/03/27 00:20:04;;;;;;;28.25;12.65;;;;;;;2.09;80.32;100450.97;1776021;80;20199;-79
2021/03/27 00:23:29;;;;;;;26.73;12.47;;;;;;;2.05;80.49;100451.69;1776000;81;21725;-79
2021/03/27 00:26:52;;;;;;;24.07;12.90;;;;;;;2.05;80.65;100456.23;1777511;81;21262;-79
2021/03/27 00:30:02;;;;;;;21.02;12.60;;;;;;;2.03;80.74;100455.50;1777698;81;21147;-79
2021/03/27 00:33:06;;;;;;;21.97;12.67;;;;;;;2.02;80.85;100461.39;1777819;81;21192;-79
2021/03/27 00:36:24;;;;;;;32.50;14.03;;;;;;;2.02;81.06;100451.95;1777757;81;21266;-79
2021/03/27 00:39:35;;;;;;;24.05;12.53;;;;;;;2.01;81.17;100460.99;1778159;79;21290;-79
2021/03/27 00:42:44;;;;;;;23.38;13.32;;;;;;;2.00;81.32;100457.07;1779050;80;21294;-79
2021/03/27 00:45:53;;;;;;;22.75;12.90;;;;;;;1.96;81.36;100457.79;1778999;80;21144;-79
2021/03/27 00:49:08;;;;;;;23.67;12.53;;;;;;;1.92;81.70;100459.00;1749977;80;21278;-79
2021/03/27 00:52:18;;;;;;;21.37;12.07;;;;;;;1.90;82.01;100454.72;1777368;80;21202;-79
2021/03/27 00:55:33;;;;;;;22.95;12.30;;;;;;;1.87;82.29;100458.49;1779089;80;21266;-79
2021/03/27 00:58:44;;;;;;;25.70;13.58;;;;;;;1.86;82.46;100455.43;1770161;80;21748;-79
2021/03/27 01:01:51;;;;;;;20.82;12.43;;;;;;;1.84;82.58;100449.80;1779083;80;21183;-79
2021/03/27 01:05:17;;;;;;;22.37;12.55;;;;;;;1.84;82.62;100452.50;1779149;80;21297;-79
2021/03/27 01:08:27;;;;;;;18.60;12.05;;;;;;;1.81;82.71;100453.58;1779051;80;21861;-79
2021/03/27 01:11:46;;;;;;;19.98;12.43;;;;;;;1.79;82.66;100448.31;1734998;80;21760;-79
2021/03/27 01:14:56;;;;;;;20.92;12.98;;;;;;;1.78;82.67;100453.30;1777545;80;21749;-79
2021/03/27 01:18:05;;;;;;;24.27;13.93;;;;;;;1.77;82.71;100449.39;1779064;80;21305;-79
2021/03/27 01:21:22;;;;;;;22.10;13.05;;;;;;;1.76;82.78;100451.23;1779185;80;21710;-79
2021/03/27 01:24:33;;;;;;;21.37;12.55;;;;;;;1.76;82.79;100452.58;1779134;80;21615;-79
2021/03/27 01:27:44;;;;;;;30.17;14.15;;;;;;;1.75;82.89;100456.26;1779031;80;21306;-79
2021/03/27 01:31:07;;;;;;;22.55;13.72;;;;;;;1.76;82.94;100458.46;1733687;80;21793;-79
2021/03/27 01:34:43;;;;;;;25.08;13.98;;;;;;;1.78;82.92;100457.35;1778923;80;21329;-79
2021/03/27 01:38:00;;;;;;;21.45;13.70;;;;;;;1.82;82.90;100455.28;1778904;80;21345;-79
2021/03/27 01:41:22;;;;;;;27.52;14.20;;;;;;;1.87;82.93;100458.49;1778652;79;21297;-79
2021/03/27 01:44:50;;;;;;;25.32;12.80;;;;;;;1.91;82.96;100463.17;1779121;80;21270;-79
2021/03/27 01:48:02;;;;;;;25.45;13.90;;;;;;;1.97;82.96;100461.34;1779036;80;21301;-79
2021/03/27 01:51:26;;;;;;;23.87;13.18;;;;;;;2.04;82.90;100463.95;1779060;80;21717;-79
2021/03/27 01:54:52;;;;;;;21.42;12.82;;;;;;;2.08;82.76;100464.09;1777486;80;21238;-79
2021/03/27 01:58:19;;;;;;;23.65;13.40;;;;;;;2.14;82.59;100464.96;1779027;80;21836;-79
2021/03/27 02:01:52;;;;;;;27.95;13.53;;;;;;;2.18;82.44;100468.30;1779071;80;21263;-79
2021/03/27 02:05:12;;;;;;;25.12;13.43;;;;;;;2.20;82.30;100474.41;1778994;80;21172;-79
2021/03/27 02:08:42;;;;;;;22.55;12.73;;;;;;;2.21;82.16;100474.78;1779043;80;21295;-79
2021/03/27 02:12:09;;;;;;;21.95;12.25;;;;;;;2.22;82.07;100473.34;1779226;80;21270;-79
2021/03/27 02:15:20;;;;;;;28.00;14.38;;;;;;;2.21;81.90;100480.17;1742848;80;21214;-79
2021/03/27 02:18:54;;;;;;;20.77;13.28;;;;;;;2.19;81.77;100477.61;1779028;80;21167;-79
2021/03/27 02:22:38;;;;;;;23.57;13.72;;;;;;;2.18;81.68;100475.89;1779015;80;21827;-79
2021/03/27 02:26:32;;;;;;;21.68;12.82;;;;;;;2.15;81.62;100480.17;1779089;80;21254;-79
2021/03/27 02:30:08;;;;;;;21.48;12.82;;;;;;;2.13;81.52;100480.79;1779089;80;21269;-79
2021/03/27 02:33:44;;;;;;;22.25;13.45;;;;;;;2.12;81.53;100485.83;1710630;83;21237;-79
2021/03/27 02:37:21;;;;;;;25.15;13.58;;;;;;;2.12;81.54;100484.47;1712225;80;21177;-79
2021/03/27 02:40:32;;;;;;;21.73;12.85;;;;;;;2.16;81.54;100489.98;1778944;80;21298;-79
2021/03/27 02:43:46;;;;;;;20.77;12.98;;;;;;;2.22;81.54;100492.23;1778983;80;21329;-79
2021/03/27 02:46:56;;;;;;;28.62;15.43;;;;;;;2.27;81.47;100492.73;1778925;80;21392;-79
2021/03/27 02:50:28;;;;;;;20.03;13.23;;;;;;;2.30;81.28;100492.96;1779219;80;21187;-79
2021/03/27 02:53:55;;;;;;;19.95;12.93;;;;;;;2.32;81.16;100488.33;1779012;80;21889;-79
2021/03/27 02:57:11;;;;;;;24.10;14.38;;;;;;;2.32;81.12;100490.17;1777375;80;21262;-79
2021/03/27 03:00:44;;;;;;;22.42;13.72;;;;;;;2.33;81.07;100489.18;1779142;80;21148;-79
2021/03/27 03:04:05;;;;;;;24.05;13.78;;;;;;;2.33;80.99;100489.18;1779000;80;21306;-79
2021/03/27 03:07:21;;;;;;;21.52;13.75;;;;;;;2.32;80.95;100490.17;1766209;80;21330;-79
2021/03/27 03:10:36;;;;;;;22.32;13.03;;;;;;;2.31;80.90;100494.70;1770058;80;22052;-79
2021/03/27 03:13:48;;;;;;;24.18;13.72;;;;;;;2.30;80.92;100493.82;1778943;80;21195;-79
2021/03/27 03:16:58;;;;;;;21.30;13.08;;;;;;;2.31;80.97;100489.31;1777373;80;21191;-79
2021/03/27 03:20:47;;;;;;;29.18;15.15;;;;;;;2.32;80.98;100491.02;1778994;80;21207;-79
2021/03/27 03:24:20;;;;;;;20.52;13.08;;;;;;;2.34;80.96;100498.50;1778957;80;21215;-79
2021/03/27 03:27:55;;;;;;;21.73;12.98;;;;;;;2.36;80.94;100494.35;1778970;80;21289;-79
2021/03/27 03:31:24;;;;;;;23.57;14.00;;;;;;;2.38;80.88;100495.08;1779038;80;21274;-79
2021/03/27 03:34:50;;;;;;;23.07;13.88;;;;;;;2.41;80.74;100500.25;1779049;80;21737;-79
2021/03/27 03:38:27;;;;;;;22.95;13.13;;;;;;;2.41;80.63;100495.70;1779041;80;21305;-79
2021/03/27 03:41:53;;;;;;;22.60;13.72;;;;;;;2.41;80.55;100498.90;1779068;80;21192;-79
2021/03/27 03:45:20;;;;;;;21.45;13.38;;;;;;;2.40;80.49;100506.60;1779121;80;21270;-79
2021/03/27 03:48:55;;;;;;;23.50;13.32;;;;;;;2.37;80.50;100506.86;1778975;80;21242;-79
2021/03/27 03:52:19;;;;;;;24.23;13.80;;;;;;;2.35;80.60;100513.70;1779002;80;21758;-78
2021/03/27 03:56:00;;;;;;;21.95;12.88;;;;;;;2.33;80.69;100518.87;1779062;80;21289;-79
2021/03/27 03:59:35;;;;;;;23.15;13.48;;;;;;;2.31;80.75;100524.41;1764453;80;21153;-79
2021/03/27 04:02:46;;;;;;;27.30;14.53;;;;;;;2.28;80.85;100522.78;1779074;80;21298;-79
2021/03/27 04:06:07;;;;;;;28.85;14.78;;;;;;;2.28;80.95;100527.33;1778780;80;22076;-79
2021/03/27 04:09:48;;;;;;;21.15;13.30;;;;;;;2.29;81.00;100523.64;1779140;80;21273;-79
2021/03/27 04:13:26;;;;;;;24.65;13.98;;;;;;;2.32;81.08;100533.36;1718955;83;21935;-79
2021/03/27 04:16:32;;;;;;;23.90;13.68;;;;;;;2.34;81.16;100529.55;1779076;80;21293;-79
2021/03/27 04:19:37;;;;;;;24.72;15.00;;;;;;;2.39;81.22;100529.19;1779140;80;21265;-79
2021/03/27 04:22:49;;;;;;;23.15;14.75;;;;;;;2.43;81.18;100534.23;1778363;80;21202;-79
2021/03/27 04:26:18;;;;;;;27.17;15.85;;;;;;;2.46;81.10;100529.95;1778625;80;21162;-79
2021/03/27 04:29:56;;;;;;;26.37;14.35;;;;;;;2.52;81.08;100538.06;1778973;80;21721;-79
2021/03/27 04:33:23;;;;;;;25.30;14.53;;;;;;;2.59;81.01;100538.44;1779047;80;21317;-79
2021/03/27 04:36:49;;;;;;;25.77;14.98;;;;;;;2.65;80.88;100538.83;1778604;80;21333;-79
2021/03/27 04:40:07;;;;;;;27.27;15.20;;;;;;;2.71;80.74;100543.75;1744867;80;21263;-79
2021/03/27 04:43:42;;;;;;;25.00;15.35;;;;;;;2.77;80.64;100545.95;1780337;80;21854;-79
2021/03/27 04:46:55;;;;;;;27.42;16.40;;;;;;;2.84;80.55;100544.14;1773038;80;21317;-79
2021/03/27 04:50:12;;;;;;;26.15;16.62;;;;;;;2.94;80.44;100552.74;1788217;80;21691;-79
2021/03/27 04:53:40;;;;;;;25.72;15.53;;;;;;;3.04;80.33;100551.52;1788101;80;21697;-78
2021/03/27 04:57:12;;;;;;;33.10;16.70;;;;;;;3.13;80.23;100555.34;1788061;80;21863;-79
2021/03/27 05:00:34;;;;;;;37.53;17.67;;;;;;;3.18;79.82;100558.03;1788151;80;21270;-79
2021/03/27 05:03:45;;;;;;;24.95;15.48;;;;;;;3.23;79.57;100563.92;1767256;80;21333;-79
2021/03/27 05:07:22;;;;;;;30.15;16.65;;;;;;;3.31;79.36;100567.38;1787939;80;21187;-79
2021/03/27 05:10:37;;;;;;;25.35;15.85;;;;;;;3.42;79.62;100566.50;1788194;80;21163;-78
2021/03/27 05:13:48;;;;;;;24.90;15.95;;;;;;;3.57;79.67;100557.13;1788064;80;21228;-77
2021/03/27 05:17:22;;;;;;;27.93;15.55;;;;;;;3.75;79.65;100557.47;1779603;80;21261;-78
2021/03/27 05:20:39;;;;;;;30.75;16.70;;;;;;;3.89;78.57;100560.39;1730948;80;21693;-78
2021/03/27 05:24:12;;;;;;;30.30;16.95;;;;;;;3.96;77.90;100560.27;1788141;80;21312;-78
2021/03/27 05:27:31;;;;;;;35.13;18.27;;;;;;;4.00;77.59;100569.82;1787642;80;21333;-78
2021/03/27 05:31:09;;;;;;;34.73;18.70;;;;;;;4.05;77.37;100567.13;1788348;80;21725;-78
2021/03/27 05:34:36;;;;;;;31.85;19.25;;;;;;;4.08;77.26;100565.98;1788251;80;21151;-78
2021/03/27 05:38:11;;;;;;;46.13;24.32;;;;;;;4.15;77.24;100569.91;1787323;80;21293;-78
2021/03/27 05:41:46;;;;;;;54.38;24.82;;;;;;;4.26;77.47;100567.65;1788284;80;21756;-78
2021/03/27 05:45:17;;;;;;;42.15;23.57;;;;;;;4.37;77.01;100567.59;1783619;80;21321;-78
2021/03/27 05:48:54;;;;;;;43.33;25.68;;;;;;;4.48;76.80;100570.27;1726036;80;21804;-78
2021/03/27 05:52:38;;;;;;;50.48;25.45;;;;;;;4.57;76.40;100582.17;1778282;80;21175;-77
2021/03/27 05:56:09;;;;;;;38.60;23.27;;;;;;;4.66;76.20;100585.45;1779063;80;21786;-78
2021/03/27 05:59:32;;;;;;;44.77;22.40;;;;;;;4.83;76.02;100593.45;1777324;80;21160;-78
2021/03/27 06:02:53;;;;;;;50.85;25.77;;;;;;;5.09;76.21;100583.07;1779051;80;21294;-78
2021/03/27 06:06:38;;;;;;;39.85;22.32;;;;;;;5.32;75.90;100591.39;1757179;80;21332;-78
2021/03/27 06:10:37;;;;;;;54.55;25.52;;;;;;;5.53;74.84;100604.04;1778963;80;21326;-78
2021/03/27 06:13:53;;;;;;;48.35;25.27;;;;;;;5.62;73.93;100604.58;1778932;80;21325;-78
2021/03/27 06:17:06;;;;;;;41.80;24.18;;;;;;;5.75;74.45;100611.13;1778911;80;21318;-78
2021/03/27 06:20:42;;;;;;;47.53;25.62;;;;;;;5.88;73.86;100611.71;1779068;80;21509;-78
2021/03/27 06:24:25;;;;;;;44.85;25.48;;;;;;;5.96;72.88;100605.12;1778843;80;21286;-78
2021/03/27 06:27:54;;;;;;;44.48;25.85;;;;;;;5.99;72.89;100609.44;1777262;80;21207;-78
2021/03/27 06:31:34;;;;;;;54.83;28.73;;;;;;;6.01;73.34;100615.07;1779043;80;21689;-78
2021/03/27 06:35:01;;;;;;;55.10;31.62;;;;;;;6.02;73.34;100618.17;1779069;80;21156;-78
2021/03/27 06:38:33;;;;;;;53.75;30.37;;;;;;;6.10;73.62;100616.95;1757439;80;21333;-78
2021/03/27 06:42:04;;;;;;;63.20;34.73;;;;;;;6.22;73.38;100621.77;1759781;80;21305;-78
2021/03/27 06:45:53;;;;;;;64.80;35.55;;;;;;;6.39;72.57;100607.97;1780864;80;21183;-78
2021/03/27 06:49:53;;;;;;;60.15;34.63;;;;;;;6.57;71.32;100621.72;1788160;80;21800;-78
2021/03/27 06:53:35;;;;;;;81.87;39.10;;;;;;;6.75;72.01;100624.08;1788262;80;21824;-78
2021/03/27 06:56:53;;;;;;;65.72;37.60;;;;;;;6.85;70.20;100634.44;1770072;80;21202;-78
2021/03/27 07:00:38;;;;;;;68.37;38.42;;;;;;;6.80;69.70;100628.58;1788159;80;21147;-78
2021/03/27 07:04:36;;;;;;;58.65;32.67;;;;;;;6.81;69.96;100632.16;1788007;80;21302;-78
2021/03/27 07:08:04;;;;;;;58.70;34.92;;;;;;;6.75;70.01;100632.73;1746950;80;21365;-78
2021/03/27 07:11:34;;;;;;;56.42;33.35;;;;;;;6.60;69.81;100635.03;1788170;80;21186;-78
2021/03/27 07:15:15;;;;;;;47.73;28.42;;;;;;;6.52;70.48;100640.31;1786502;80;21174;-78
2021/03/27 07:18:49;;;;;;;50.98;30.43;;;;;;;6.51;70.67;100646.75;1788138;80;21289;-78
2021/03/27 07:22:06;;;;;;;54.00;29.77;;;;;;;6.45;71.18;100646.83;1788180;80;21307;-78
2021/03/27 07:25:43;;;;;;;53.28;31.15;;;;;;;6.37;71.29;100651.60;1788176;80;21334;-78
2021/03/27 07:29:31;;;;;;;56.77;29.35;;;;;;;6.31;71.66;100658.11;1787348;80;21308;-79
2021/03/27 07:33:07;;;;;;;48.02;30.80;;;;;;;6.28;72.48;100657.87;1787614;80;21329;-78
2021/03/27 07:36:48;;;;;;;51.45;30.00;;;;;;;6.29;72.33;100660.09;1788068;80;21258;-77
2021/03/27 07:40:07;;;;;;;52.15;28.67;;;;;;;6.28;72.17;100647.01;1786961;80;21186;-78
2021/03/27 07:43:59;;;;;;;46.90;28.65;;;;;;;6.22;72.50;100647.58;1788203;80;21191;-78
2021/03/27 07:47:30;;;;;;;46.53;28.50;;;;;;;6.20;72.96;100658.20;1780895;79;21183;-78
2021/03/27 07:51:20;;;;;;;47.70;29.80;;;;;;;6.20;72.95;100663.64;1777716;81;21856;-78
2021/03/27 07:54:50;;;;;;;47.08;26.97;;;;;;;6.21;73.07;100666.24;1777720;81;21282;-78
2021/03/27 07:58:30;;;;;;;49.70;29.30;;;;;;;6.28;73.54;100671.46;1777642;81;21733;-78
2021/03/27 08:02:11;;;;;;;44.48;28.77;;;;;;;6.36;73.64;100675.70;1777747;81;21262;-78
2021/03/27 08:05:53;;;;;;;47.58;26.35;;;;;;;6.41;72.92;100672.56;1777790;81;21128;-78
2021/03/27 08:09:20;;;;;;;46.75;27.27;;;;;;;6.43;72.96;100680.06;1777487;81;21227;-78
2021/03/27 08:12:50;;;;;;;49.70;29.55;;;;;;;6.46;73.48;100676.22;1777671;81;21302;-78
2021/03/27 08:16:33;;;;;;;53.33;27.95;;;;;;;6.51;73.52;100677.51;1777906;81;21286;-78
2021/03/27 08:19:47;;;;;;;46.05;27.17;;;;;;;6.61;73.46;100680.23;1777716;81;21228;-78
2021/03/27 08:23:16;;;;;;;53.38;29.75;;;;;;;6.66;73.29;100687.45;1777609;80;21199;-78
2021/03/27 08:27:07;;;;;;;51.70;28.17;;;;;;;6.72;73.05;100688.23;1777953;81;21187;-78
2021/03/27 08:30:40;;;;;;;54.63;27.67;;;;;;;6.81;73.05;100684.67;1777696;80;21262;-78
2021/03/27 08:34:00;;;;;;;45.25;27.87;;;;;;;6.97;73.20;100689.55;1777586;81;21325;-78
2021/03/27 08:37:38;;;;;;;41.55;25.32;;;;;;;7.06;73.48;100690.05;1777694;81;21210;-78
2021/03/27 08:41:10;;;;;;;37.73;25.02;;;;;;;7.13;73.09;100693.89;1777654;80;21346;-78
2021/03/27 08:44:55;;;;;;;40.50;24.92;;;;;;;7.20;72.80;100689.22;1777707;81;21297;-78
2021/03/27 08:48:52;;;;;;;45.98;28.23;;;;;;;7.28;72.98;100686.64;1777019;80;21836;-78
2021/03/27 08:52:31;;;;;;;41.85;24.92;;;;;;;7.38;72.77;100686.97;1777673;81;21753;-78
2021/03/27 08:56:07;;;;;;;43.45;26.00;;;;;;;7.50;72.79;100694.48;1773550;81;21231;-78
2021/03/27 09:00:10;;;;;;;44.05;24.75;;;;;;;7.56;72.48;100691.66;1777849;81;21304;-78
2021/03/27 09:04:09;;;;;;;49.67;26.42;;;;;;;7.63;71.81;100695.52;1777611;81;21195;-78
2021/03/27 09:07:38;;;;;;;44.48;25.68;;;;;;;7.66;72.67;100699.29;1776062;81;21764;-78
2021/03/27 09:11:02;;;;;;;43.58;27.10;;;;;;;7.70;72.35;100702.08;1776713;81;21828;-78
2021/03/27 09:14:47;;;;;;;46.53;28.25;;;;;;;7.75;71.42;100704.36;1777678;81;21270;-78
2021/03/27 09:18:20;;;;;;;48.45;27.30;;;;;;;7.77;71.26;100701.86;1776800;81;21325;-78
2021/03/27 09:21:50;;;;;;;40.20;24.30;;;;;;;7.80;70.33;100702.89;1777539;81;21321;-78
2021/03/27 09:25:16;;;;;;;40.88;25.90;;;;;;;7.84;69.92;100701.59;1777685;81;21271;-78
2021/03/27 09:28:43;;;;;;;41.28;24.07;;;;;;;7.89;70.77;100702.52;1777667;81;21167;-78
2021/03/27 09:32:11;;;;;;;42.67;23.62;;;;;;;7.98;70.41;100706.20;1777746;80;21762;-78
2021/03/27 09:35:32;;;;;;;36.03;23.42;;;;;;;8.04;69.17;100706.95;1777728;81;21262;-78
2021/03/27 09:38:51;;;;;;;41.90;22.90;;;;;;;8.08;69.07;100708.37;1776053;81;21195;-78
2021/03/27 09:42:31;;;;;;;38.73;22.73;;;;;;;8.11;68.99;100710.81;1777638;81;21278;-78
2021/03/27 09:46:03;;;;;;;35.83;22.32;;;;;;;8.19;69.10;100710.92;1777757;81;21269;-78
2021/03/27 09:49:53;;;;;;;36.50;22.85;;;;;;;8.32;69.22;100712.77;1776971;79;21302;-78
2021/03/27 09:53:28;;;;;;;31.37;21.60;;;;;;;8.47;69.64;100708.19;1777784;81;21329;-78
2021/03/27 09:57:13;;;;;;;36.10;19.90;;;;;;;8.68;69.56;100705.55;1777595;81;21855;-78
2021/03/27 10:00:27;;;;;;;34.75;20.90;;;;;;;8.86;67.58;100702.83;1777426;81;21871;-78
2021/03/27 10:04:22;;;;;;;36.28;21.50;;;;;;;9.07;67.08;100698.41;1758527;81;21211;-78
2021/03/27 10:08:12;;;;;;;34.30;20.32;;;;;;;9.19;66.05;100713.54;1777657;81;21301;-78
2021/03/27 10:11:23;;;;;;;32.73;21.35;;;;;;;9.35;65.16;100710.07;1776920;81;21297;-78
2021/03/27 10:14:33;;;;;;;32.58;20.23;;;;;;;9.49;64.96;100707.28;1777767;81;21860;-78
2021/03/27 10:17:46;;;;;;;34.63;20.05;;;;;;;9.59;64.57;100713.48;1758222;81;21187;-78
2021/03/27 10:21:00;;;;;;;35.38;20.60;;;;;;;9.66;64.12;100715.94;1777667;81;21298;-78
2021/03/27 10:24:42;;;;;;;32.60;18.90;;;;;;;9.76;63.94;100710.37;1777669;81;21160;-78
2021/03/27 10:28:12;;;;;;;33.55;18.30;;;;;;;9.88;62.50;100704.98;1764434;81;21285;-78
2021/03/27 10:31:29;;;;;;;31.40;20.17;;;;;;;9.98;62.18;100707.59;1777849;81;21203;-78
2021/03/27 10:34:42;;;;;;;33.13;18.42;;;;;;;10.04;62.21;100711.04;1777687;81;21305;-78
2021/03/27 10:37:54;;;;;;;37.55;19.35;;;;;;;10.10;62.46;100710.38;1777687;81;21814;-78
2021/03/27 10:41:10;;;;;;;30.02;19.27;;;;;;;10.13;61.79;100711.94;1777376;81;21843;-78
2021/03/27 10:44:43;;;;;;;27.93;16.90;;;;;;;10.18;61.29;100712.30;1777619;80;21167;-78
2021/03/27 10:48:12;;;;;;;27.45;16.20;;;;;;;10.28;60.78;100713.06;1777606;81;21293;-79
2021/03/27 10:51:52;;;;;;;23.50;16.47;;;;;;;10.38;58.58;100709.67;1777993;81;21876;-78
2021/03/27 10:55:18;;;;;;;26.25;17.98;;;;;;;10.47;58.50;100717.40;1776030;81;21701;-79
2021/03/27 10:58:44;;;;;;;29.57;17.35;;;;;;;10.60;59.41;100721.04;1777657;81;21289;-79
2021/03/27 11:02:11;;;;;;;22.10;14.45;;;;;;;10.64;59.76;100718.32;1777544;81;21329;-79
2021/03/27 11:05:31;;;;;;;31.70;15.58;;;;;;;10.71;60.13;100718.83;1777756;81;21262;-78
2021/03/27 11:09:20;;;;;;;26.05;16.85;;;;;;;10.79;58.91;100719.38;1777589;81;21294;-79
2021/03/27 11:12:50;;;;;;;23.30;15.13;;;;;;;10.88;59.11;100723.84;1774286;81;21795;-78
2021/03/27 11:16:42;;;;;;;22.85;12.68;;;;;;;10.96;57.69;100723.86;1766541;81;21144;-78
2021/03/27 11:20:21;;;;;;;22.77;14.03;;;;;;;11.03;52.90;100732.24;1777667;81;21750;-79
2021/03/27 11:23:43;;;;;;;26.45;17.17;;;;;;;11.04;51.07;100731.72;1777610;81;21702;-78
2021/03/27 11:27:07;;;;;;;37.40;22.20;;;;;;;11.05;51.92;100731.55;1730548;81;21210;-79
2021/03/27 11:30:35;;;;;;;36.50;23.05;;;;;;;11.06;51.31;100736.54;1777521;81;21148;-79
2021/03/27 11:34:19;;;;;;;36.40;23.38;;;;;;;11.04;53.02;100734.46;1777591;81;21768;-79
2021/03/27 11:37:35;;;;;;;35.85;20.95;;;;;;;11.06;52.73;100735.17;1777566;81;21294;-79
2021/03/27 11:40:56;;;;;;;34.98;21.30;;;;;;;11.02;53.97;100731.05;1777561;81;21172;-78
2021/03/27 11:44:40;;;;;;;96.85;49.25;;;;;;;11.01;53.67;100731.57;1777611;81;21274;-79
2021/03/27 11:47:53;;;;;;;35.78;20.75;;;;;;;11.01;52.54;100721.98;1777567;81;21293;-78
2021/03/27 11:51:08;;;;;;;35.52;18.50;;;;;;;10.99;51.04;100728.13;1777612;80;21187;-78
2021/03/27 11:54:37;;;;;;;29.32;16.05;;;;;;;10.96;49.60;100726.60;1777335;80;21159;-78
2021/03/27 11:57:57;;;;;;;17.20;10.80;;;;;;;10.96;50.04;100729.34;1778476;80;21247;-79
2021/03/27 12:01:11;;;;;;;23.95;14.15;;;;;;;10.93;48.83;100724.70;1778074;80;21884;-78
2021/03/27 12:04:43;;;;;;;23.12;13.55;;;;;;;10.86;49.37;100723.13;1779168;80;21262;-79
2021/03/27 12:08:04;;;;;;;23.50;11.18;;;;;;;10.86;50.50;100729.98;1777494;80;21203;-79
2021/03/27 12:11:18;;;;;;;22.52;11.22;;;;;;;10.82;49.61;100726.38;1777607;80;21163;-79
2021/03/27 12:14:49;;;;;;;24.65;12.75;;;;;;;10.82;49.96;100734.58;1779080;80;21166;-79
2021/03/27 12:18:24;;;;;;;18.12;11.08;;;;;;;10.85;50.85;100733.74;1779036;80;21220;-78
2021/03/27 12:21:45;;;;;;;16.70;10.78;;;;;;;10.92;49.72;100737.54;1777467;80;21751;-78
2021/03/27 12:25:19;;;;;;;19.30;10.60;;;;;;;10.96;50.13;100741.66;1779243;80;21267;-79
2021/03/27 12:28:38;;;;;;;24.77;11.63;;;;;;;11.03;48.87;100740.97;1779080;80;21357;-78
2021/03/27 12:32:25;;;;;;;20.85;11.00;;;;;;;11.00;48.36;100744.38;1779020;80;21159;-78
2021/03/27 12:36:05;;;;;;;16.87;9.70;;;;;;;10.94;49.62;100742.83;1779071;80;21266;-79
2021/03/27 12:39:29;;;;;;;14.45;9.10;;;;;;;10.97;48.16;100746.09;1778992;80;21274;-79
2021/03/27 12:42:55;;;;;;;11.73;8.00;;;;;;;11.00;49.06;100753.95;1778663;80;21321;-79
2021/03/27 12:46:41;;;;;;;14.35;8.80;;;;;;;11.05;47.73;100739.76;1779031;80;21306;-79
2021/03/27 12:50:07;;;;;;;16.52;8.70;;;;;;;11.11;46.99;100743.21;1779125;80;21258;-79
2021/03/27 12:53:48;;;;;;;14.78;8.50;;;;;;;11.17;49.22;100737.05;1784707;80;21306;-79
2021/03/27 12:57:30;;;;;;;17.95;9.35;;;;;;;11.24;49.60;100739.95;1785698;80;21170;-79
2021/03/27 13:01:18;;;;;;;14.60;8.48;;;;;;;11.26;48.49;100742.02;1785498;80;21143;-78
2021/03/27 13:05:02;;;;;;;16.25;8.13;;;;;;;11.16;49.12;100744.92;1785828;80;21194;-78
2021/03/27 13:08:46;;;;;;;16.67;9.25;;;;;;;11.04;49.40;100741.31;1785602;80;21297;-79
2021/03/27 13:12:08;;;;;;;21.57;11.15;;;;;;;10.99;50.55;100747.28;1785677;80;21273;-78
2021/03/27 13:16:00;;;;;;;13.88;7.85;;;;;;;11.00;50.27;100740.27;1785685;80;21163;-79
2021/03/27 13:19:32;;;;;;;13.95;8.20;;;;;;;11.01;49.97;100738.41;1785694;80;21151;-78
2021/03/27 13:22:45;;;;;;;15.23;9.83;;;;;;;10.92;49.45;100730.70;1785073;80;21163;-79
2021/03/27 13:26:06;;;;;;;17.48;9.68;;;;;;;10.89;47.30;100736.49;1785649;80;21278;-79
2021/03/27 13:29:37;;;;;;;20.02;12.07;;;;;;;10.89;50.20;100750.17;1785747;80;21293;-79
2021/03/27 13:32:42;;;;;;;22.22;15.58;;;;;;;10.91;47.90;100741.78;1785119;80;21828;-79
2021/03/27 13:36:00;;;;;;;34.73;20.50;;;;;;;10.93;48.36;100744.72;1785686;80;21182;-79
2021/03/27 13:39:34;;;;;;;33.18;19.37;;;;;;;10.94;49.53;100738.21;1785717;80;21199;-79
2021/03/27 13:42:52;;;;;;;28.47;16.73;;;;;;;10.91;50.05;100742.64;1785052;80;21278;-79
2021/03/27 13:46:39;;;;;;;26.68;14.58;;;;;;;10.83;50.71;100742.65;1785688;80;21785;-79
2021/03/27 13:49:54;;;;;;;30.72;16.75;;;;;;;10.73;52.23;100746.05;1785677;80;21207;-78
2021/03/27 13:53:19;;;;;;;24.60;14.43;;;;;;;10.61;50.60;100749.58;1786261;80;21824;-79
2021/03/27 13:57:06;;;;;;;24.50;13.30;;;;;;;10.50;51.51;100745.80;1788186;80;21756;-79
2021/03/27 14:00:28;;;;;;;25.55;14.05;;;;;;;10.39;52.58;100755.13;1788011;80;21301;-78
2021/03/27 14:04:13;;;;;;;11.97;7.22;;;;;;;10.27;53.21;100755.61;1788064;80;21159;-78
2021/03/27 14:07:41;;;;;;;18.27;11.93;;;;;;;10.18;54.21;100758.77;1786493;80;21194;-78
2021/03/27 14:11:10;;;;;;;21.82;12.05;;;;;;;10.08;55.34;100753.42;1788180;80;21289;-78
2021/03/27 14:14:17;;;;;;;23.67;14.53;;;;;;;10.01;55.70;100758.33;1788150;80;21285;-78
2021/03/27 14:17:57;;;;;;;23.40;13.72;;;;;;;9.95;56.36;100753.86;1786612;80;21198;-78
2021/03/27 14:21:23;;;;;;;19.77;11.88;;;;;;;9.94;56.70;100753.52;1788076;80;21273;-78
2021/03/27 14:24:56;;;;;;;20.55;10.15;;;;;;;9.94;57.28;100754.88;1786571;80;21164;-78
2021/03/27 14:28:37;;;;;;;13.93;8.38;;;;;;;9.96;56.99;100757.44;1788123;80;21300;-78
2021/03/27 14:32:05;;;;;;;13.45;7.60;;;;;;;9.98;56.63;100760.89;1788121;80;21712;-78
2021/03/27 14:35:34;;;;;;;13.88;7.70;;;;;;;10.02;57.29;100762.77;1788112;80;21301;-78
2021/03/27 14:39:06;;;;;;;21.10;9.93;;;;;;;10.03;58.21;100759.04;1787671;80;21198;-79
2021/03/27 14:42:16;;;;;;;16.15;9.38;;;;;;;10.00;58.80;100750.64;1788064;80;21305;-78
2021/03/27 14:45:58;;;;;;;13.22;7.70;;;;;;;9.99;57.85;100755.77;1788114;80;21317;-78
2021/03/27 14:49:23;;;;;;;25.50;12.45;;;;;;;9.98;57.76;100757.64;1788157;80;21274;-78
2021/03/27 14:52:49;;;;;;;41.73;18.40;;;;;;;9.95;58.46;100756.59;1787756;80;21827;-78
2021/03/27 14:56:03;;;;;;;49.42;21.75;;;;;;;9.88;59.36;100765.10;1788248;80;21803;-78
2021/03/27 14:59:23;;;;;;;55.35;21.97;;;;;;;9.84;59.77;100766.95;1788037;80;21270;-78
2021/03/27 15:02:42;;;;;;;56.75;23.35;;;;;;;9.76;60.14;100762.78;1788098;80;21368;-78
2021/03/27 15:05:50;;;;;;;31.60;13.13;;;;;;;9.71;60.74;100769.58;1788158;80;21273;-78
2021/03/27 15:09:06;;;;;;;31.90;13.83;;;;;;;9.67;61.37;100771.42;1787968;80;21289;-78
2021/03/27 15:12:39;;;;;;;42.70;15.85;;;;;;;9.62;61.86;100772.41;1759333;80;21843;-78
2021/03/27 15:16:05;;;;;;;24.55;12.10;;;;;;;9.59;62.71;100775.45;1788005;80;21301;-78
2021/03/27 15:19:32;;;;;;;15.80;9.13;;;;;;;9.56;63.70;100783.98;1785657;80;21210;-79
2021/03/27 15:23:21;;;;;;;11.53;7.90;;;;;;;9.52;64.63;100786.67;1779552;79;21224;-78
2021/03/27 15:30:37;;;;;;;20.92;10.75;;;;;;;9.43;65.61;100803.48;1710736;84;21295;-78
2021/03/27 15:34:05;;;;;;;25.82;14.13;;;;;;;9.37;65.99;100798.16;1789410;80;21293;-78
2021/03/27 15:37:14;;;;;;;48.02;24.37;;;;;;;9.34;66.41;100802.55;1789597;80;21195;-78
2021/03/27 15:40:29;;;;;;;76.33;38.85;;;;;;;9.32;66.61;100811.42;1789678;80;21266;-78
2021/03/27 15:43:50;;;;;;;80.03;39.58;;;;;;;9.30;66.68;100807.97;1789670;80;21310;-78
2021/03/27 15:47:02;;;;;;;76.30;36.50;;;;;;;9.28;66.81;100811.38;1790253;80;21139;-78
2021/03/27 15:50:26;;;;;;;98.12;40.83;;;;;;;9.24;67.14;100809.11;1790116;79;21735;-78
2021/03/27 15:53:51;;;;;;;75.35;33.85;;;;;;;9.20;67.37;100808.05;1786347;80;21283;-78
2021/03/27 15:57:29;;;;;;;100.85;42.93;;;;;;;9.18;67.62;100815.55;1776563;81;21864;-78
2021/03/27 16:00:47;;;;;;;44.35;21.45;;;;;;;9.15;68.04;100816.36;1773420;80;21326;-78